Latest Weather Observations for Fort Denison

IDN60801

Issued at 8:05 pm EST Monday 28 July 2014 (issued every 30 minutes, with the page automatically refreshed every 10 minutes)

About weather observations | Map of weather stations | Latest weather observations for NSW | Other Formats
Station Details ID: 066022 Name: FORT DENISON Lat: -33.86 Lon: 151.23 Height: 5.0 m
Data from the previous 72 hours. | See also: Recent months for locations in New South Wales
Date/Time
EST
Temp
°C
App
Temp
°C
Dew
Point
Rel
Hum
%
Delta-T
°C
Wind Press
QNH
hPa
Press
MSL
hPa
Rain
since 9 am
mm
Dir
 
Spd
km/h
Gust
km/h
Spd
kts
Gust
kts
28/08:00pm - - - - - NNW 2 4 1 2 - - -
28/07:30pm - - - - - NE 2 4 1 2 - - -
28/07:00pm - - - - - NNW 7 9 4 5 - - -
28/06:30pm - - - - - NNW 7 9 4 5 - - -
28/06:00pm - - - - - NNW 7 9 4 5 - - -
28/05:30pm - - - - - N 7 7 4 4 - - -
28/05:00pm - - - - - NW 2 4 1 2 - - -
28/04:30pm - - - - - NW 2 4 1 2 - - -
28/04:00pm - - - - - WNW 6 9 3 5 - - -
28/03:30pm - - - - - WNW 11 15 6 8 - - -
28/03:00pm - - - - - WNW 15 19 8 10 - - -
28/02:30pm - - - - - WNW 17 22 9 12 - - -
28/02:00pm - - - - - W 20 26 11 14 - - -
28/01:30pm - - - - - W 24 32 13 17 - - -
28/01:00pm - - - - - W 26 41 14 22 - - -
28/12:30pm - - - - - WSW 24 35 13 19 - - -
28/12:00pm - - - - - W 30 43 16 23 - - -
28/11:30am - - - - - WSW 32 46 17 25 - - -
28/11:25am - - - - - WSW 28 46 15 25 - - -
28/11:00am - - - - - W 20 35 11 19 - - -
28/10:30am - - - - - W 22 32 12 17 - - -
28/10:00am - - - - - W 20 26 11 14 - - -
28/09:30am - - - - - W 20 24 11 13 - - -
28/09:00am - - - - - W 15 20 8 11 - - -
28/08:30am - - - - - W 11 15 6 8 - - -
28/08:00am - - - - - W 17 20 9 11 - - -
28/07:30am - - - - - W 13 17 7 9 - - -
28/07:00am - - - - - W 13 17 7 9 - - -
28/06:30am - - - - - W 17 20 9 11 - - -
28/06:00am - - - - - W 19 24 10 13 - - -
28/05:30am - - - - - W 19 20 10 11 - - -
28/05:00am - - - - - W 15 17 8 9 - - -
28/04:30am - - - - - W 17 19 9 10 - - -
28/04:00am - - - - - WNW 15 17 8 9 - - -
28/03:30am - - - - - W 17 24 9 13 - - -
28/03:00am - - - - - W 19 22 10 12 - - -
28/02:30am - - - - - W 20 20 11 11 - - -
28/02:00am - - - - - W 17 20 9 11 - - -
28/01:30am - - - - - W 19 22 10 12 - - -
28/01:00am - - - - - W 19 22 10 12 - - -
28/12:30am - - - - - W 7 15 4 8 - - -
28/12:00am - - - - - WNW 2 4 1 2 - - -
 
Date/Time
EST
Temp
°C
App
Temp
°C
Dew
Point
Rel
Hum
%
Delta-T
°C
Wind Press
QNH
hPa
Press
MSL
hPa
Rain
since 9 am
mm
Dir
 
Spd
km/h
Gust
km/h
Spd
kts
Gust
kts
27/11:30pm - - - - - WNW 6 9 3 5 - - -
27/11:00pm - - - - - W 11 11 6 6 - - -
27/10:30pm - - - - - NW 4 7 2 4 - - -
27/10:00pm - - - - - W 6 7 3 4 - - -
27/09:30pm - - - - - NNW 4 6 2 3 - - -
27/09:00pm - - - - - W 9 11 5 6 - - -
27/08:30pm - - - - - WNW 9 15 5 8 - - -
27/08:00pm - - - - - W 6 7 3 4 - - -
27/07:30pm - - - - - NNW 2 6 1 3 - - -
27/07:00pm - - - - - S 2 6 1 3 - - -
27/06:30pm - - - - - CALM 0 4 0 2 - - -
27/06:00pm - - - - - NNE 2 4 1 2 - - -
27/05:30pm - - - - - ESE 6 7 3 4 - - -
27/05:00pm - - - - - ESE 9 15 5 8 - - -
27/04:30pm - - - - - SE 9 13 5 7 - - -
27/04:00pm - - - - - SSE 15 19 8 10 - - -
27/03:30pm - - - - - SSE 15 20 8 11 - - -
27/03:00pm - - - - - ESE 15 19 8 10 - - -
27/02:30pm - - - - - ESE 17 20 9 11 - - -
27/02:00pm - - - - - ENE 7 9 4 5 - - -
27/01:30pm - - - - - S 7 20 4 11 - - -
27/01:00pm - - - - - WSW 6 11 3 6 - - -
27/12:30pm - - - - - WSW 15 20 8 11 - - -
27/12:00pm - - - - - WNW 13 19 7 10 - - -
27/11:30am - - - - - WNW 15 20 8 11 - - -
27/11:00am - - - - - WNW 17 22 9 12 - - -
27/10:30am - - - - - W 20 24 11 13 - - -
27/10:00am - - - - - W 22 28 12 15 - - -
27/09:30am - - - - - W 20 26 11 14 - - -
27/09:00am - - - - - W 20 24 11 13 - - -
27/08:30am - - - - - W 20 26 11 14 - - -
27/08:00am - - - - - W 20 24 11 13 - - -
27/07:30am - - - - - W 19 22 10 12 - - -
27/07:00am - - - - - W 19 22 10 12 - - -
27/06:30am - - - - - W 19 24 10 13 - - -
27/06:00am - - - - - W 19 22 10 12 - - -
27/05:30am - - - - - W 19 22 10 12 - - -
27/05:00am - - - - - W 20 24 11 13 - - -
27/04:30am - - - - - W 15 19 8 10 - - -
27/04:00am - - - - - W 17 20 9 11 - - -
27/03:30am - - - - - W 17 20 9 11 - - -
27/03:00am - - - - - W 17 19 9 10 - - -
27/02:30am - - - - - W 15 19 8 10 - - -
27/02:00am - - - - - W 13 15 7 8 - - -
27/01:30am - - - - - W 13 17 7 9 - - -
27/01:00am - - - - - W 13 19 7 10 - - -
27/12:30am - - - - - W 9 13 5 7 - - -
27/12:00am - - - - - W 15 20 8 11 - - -
 
Date/Time
EST
Temp
°C
App
Temp
°C
Dew
Point
Rel
Hum
%
Delta-T
°C
Wind Press
QNH
hPa
Press
MSL
hPa
Rain
since 9 am
mm
Dir
 
Spd
km/h
Gust
km/h
Spd
kts
Gust
kts
26/11:30pm - - - - - W 9 15 5 8 - - -
26/11:00pm - - - - - W 7 11 4 6 - - -
26/10:30pm - - - - - W 9 11 5 6 - - -
26/10:00pm - - - - - W 9 17 5 9 - - -
26/09:30pm - - - - - WNW 7 11 4 6 - - -
26/09:00pm - - - - - W 11 15 6 8 - - -
26/08:30pm - - - - - W 11 13 6 7 - - -
26/08:00pm - - - - - W 13 15 7 8 - - -
26/07:30pm - - - - - WNW 9 11 5 6 - - -
26/07:00pm - - - - - WSW 11 13 6 7 - - -
26/06:30pm - - - - - W 11 13 6 7 - - -
26/06:00pm - - - - - W 9 11 5 6 - - -
26/05:30pm - - - - - WNW 6 7 3 4 - - -
26/05:00pm - - - - - WNW 7 11 4 6 - - -
26/04:30pm - - - - - WNW 6 7 3 4 - - -
26/04:00pm - - - - - W 6 7 3 4 - - -
26/03:30pm - - - - - W 9 15 5 8 - - -
26/03:00pm - - - - - WNW 24 28 13 15 - - -
26/02:30pm - - - - - W 13 17 7 9 - - -
26/02:00pm - - - - - WNW 9 11 5 6 - - -
26/01:30pm - - - - - WNW 11 13 6 7 - - -
26/01:00pm - - - - - W 13 15 7 8 - - -
26/12:30pm - - - - - W 13 17 7 9 - - -
26/12:00pm - - - - - W 13 19 7 10 - - -
26/11:30am - - - - - W 11 15 6 8 - - -
26/11:00am - - - - - W 11 17 6 9 - - -
26/10:30am - - - - - NNE 19 22 10 12 - - -
26/10:00am - - - - - NNW 6 - 3 - - - -
26/09:30am - - - - - N 6 7 3 4 - - -
26/09:00am - - - - - WNW 22 26 12 14 - - -
26/08:30am - - - - - WNW 6 9 3 5 - - -
26/08:00am - - - - - SSW 6 7 3 4 - - -
26/07:30am - - - - - W 11 19 6 10 - - -
26/07:00am - - - - - W 11 13 6 7 - - -
26/06:30am - - - - - WNW 6 9 3 5 - - -
26/06:00am - - - - - NW 7 9 4 5 - - -
26/05:30am - - - - - NNW 17 24 9 13 - - -
26/05:00am - - - - - WNW 19 20 10 11 - - -
26/04:30am - - - - - W 13 19 7 10 - - -
26/04:00am - - - - - WNW 6 7 3 4 - - -
26/03:30am - - - - - WNW 7 11 4 6 - - -
26/03:00am - - - - - W 7 11 4 6 - - -
26/02:30am - - - - - W 9 13 5 7 - - -
26/02:00am - - - - - NNW 6 7 3 4 - - -
26/01:30am - - - - - WNW 4 6 2 3 - - -
26/01:00am - - - - - W 4 6 2 3 - - -
26/12:30am - - - - - S 4 7 2 4 - - -
26/12:00am - - - - - E 2 4 1 2 - - -
 
Date/Time
EST
Temp
°C
App
Temp
°C
Dew
Point
Rel
Hum
%
Delta-T
°C
Wind Press
QNH
hPa
Press
MSL
hPa
Rain
since 9 am
mm
Dir
 
Spd
km/h
Gust
km/h
Spd
kts
Gust
kts
25/11:30pm - - - - - SSW 2 4 1 2 - - -
25/11:00pm - - - - - N 4 9 2 5 - - -
25/10:30pm - - - - - ENE 7 9 4 5 - - -
25/10:00pm - - - - - N 9 13 5 7 - - -
25/09:30pm - - - - - NNE 7 9 4 5 - - -
25/09:00pm - - - - - ENE 9 11 5 6 - - -
25/08:30pm - - - - - E 9 11 5 6 - - -

Other Formats:

Comma delimited format used in spreadsheet applications
http://www.bom.gov.au/fwo/IDN60801/IDN60801.94769.axf

JavaScript Object Notation format (JSON) in row-major order
http://www.bom.gov.au/fwo/IDN60801/IDN60801.94769.json